sensor_id;sensor_type;location;lat;lon;timestamp;pressure;altitude;pressure_sealevel;temperature;humidity
64698;BME280;51124;53.394;-6.294;2023-02-19T00:01:52;101784.84;;;19.42;9.01
64698;BME280;51124;53.394;-6.294;2023-02-19T00:04:21;101790.38;;;19.32;9.04
64698;BME280;51124;53.394;-6.294;2023-02-19T00:06:49;101793.89;;;18.37;8.92
64698;BME280;51124;53.394;-6.294;2023-02-19T00:09:18;101794.40;;;19.21;8.89
64698;BME280;51124;53.394;-6.294;2023-02-19T00:11:45;101798.63;;;18.88;8.91
64698;BME280;51124;53.394;-6.294;2023-02-19T00:14:17;101804.27;;;18.81;9.00
64698;BME280;51124;53.394;-6.294;2023-02-19T00:16:45;101807.89;;;18.59;9.05
64698;BME280;51124;53.394;-6.294;2023-02-19T00:19:14;101813.91;;;19.07;9.08
64698;BME280;51124;53.394;-6.294;2023-02-19T00:21:42;101813.51;;;18.72;9.10
64698;BME280;51124;53.394;-6.294;2023-02-19T00:24:12;101810.86;;;19.22;9.02
64698;BME280;51124;53.394;-6.294;2023-02-19T00:26:41;101807.85;;;19.40;9.07
64698;BME280;51124;53.394;-6.294;2023-02-19T00:29:09;101817.22;;;18.48;9.15
64698;BME280;51124;53.394;-6.294;2023-02-19T00:31:38;101817.42;;;19.00;9.10
64698;BME280;51124;53.394;-6.294;2023-02-19T00:34:06;101822.08;;;18.71;9.07
64698;BME280;51124;53.394;-6.294;2023-02-19T00:36:36;101817.18;;;18.98;8.99
64698;BME280;51124;53.394;-6.294;2023-02-19T00:39:04;101814.46;;;19.93;8.94
64698;BME280;51124;53.394;-6.294;2023-02-19T00:41:32;101811.90;;;19.36;8.90
64698;BME280;51124;53.394;-6.294;2023-02-19T00:44:01;101813.23;;;18.96;9.00
64698;BME280;51124;53.394;-6.294;2023-02-19T00:46:31;101816.72;;;19.04;8.93
64698;BME280;51124;53.394;-6.294;2023-02-19T00:49:00;101823.34;;;19.10;8.79
64698;BME280;51124;53.394;-6.294;2023-02-19T00:51:29;101826.71;;;18.53;8.82
64698;BME280;51124;53.394;-6.294;2023-02-19T00:53:57;101828.07;;;19.86;8.77
64698;BME280;51124;53.394;-6.294;2023-02-19T00:56:25;101839.14;;;22.05;9.24
64698;BME280;51124;53.394;-6.294;2023-02-19T00:58:52;101842.97;;;20.47;9.55
64698;BME280;51124;53.394;-6.294;2023-02-19T01:01:21;101850.61;;;19.55;9.64
64698;BME280;51124;53.394;-6.294;2023-02-19T01:03:50;101853.62;;;22.61;9.84
64698;BME280;51124;53.394;-6.294;2023-02-19T01:06:18;101860.05;;;21.67;10.48
64698;BME280;51124;53.394;-6.294;2023-02-19T01:08:47;101863.97;;;21.81;10.77
64698;BME280;51124;53.394;-6.294;2023-02-19T01:11:16;101861.45;;;21.17;11.09
64698;BME280;51124;53.394;-6.294;2023-02-19T01:13:44;101855.09;;;21.05;11.10
64698;BME280;51124;53.394;-6.294;2023-02-19T01:16:15;101845.60;;;21.01;11.32
64698;BME280;51124;53.394;-6.294;2023-02-19T01:18:44;101839.85;;;21.04;11.33
64698;BME280;51124;53.394;-6.294;2023-02-19T01:21:14;101842.27;;;21.05;11.34
64698;BME280;51124;53.394;-6.294;2023-02-19T01:23:42;101846.55;;;21.00;11.45
64698;BME280;51124;53.394;-6.294;2023-02-19T01:26:13;101846.71;;;20.61;11.44
64698;BME280;51124;53.394;-6.294;2023-02-19T01:28:42;101839.15;;;21.07;11.56
64698;BME280;51124;53.394;-6.294;2023-02-19T01:31:14;101846.46;;;20.86;11.61
64698;BME280;51124;53.394;-6.294;2023-02-19T01:33:45;101843.69;;;21.07;11.63
64698;BME280;51124;53.394;-6.294;2023-02-19T01:36:14;101849.84;;;20.81;11.61
64698;BME280;51124;53.394;-6.294;2023-02-19T01:38:42;101848.96;;;20.59;11.64
64698;BME280;51124;53.394;-6.294;2023-02-19T01:41:13;101854.55;;;20.83;11.57
64698;BME280;51124;53.394;-6.294;2023-02-19T01:44:00;101846.77;;;20.74;11.68
64698;BME280;51124;53.394;-6.294;2023-02-19T01:46:07;101858.43;;;20.31;11.76
64698;BME280;51124;53.394;-6.294;2023-02-19T01:48:37;101855.23;;;20.96;11.71
64698;BME280;51124;53.394;-6.294;2023-02-19T01:51:08;101860.26;;;20.39;11.63
64698;BME280;51124;53.394;-6.294;2023-02-19T01:53:40;101858.34;;;19.19;11.61
64698;BME280;51124;53.394;-6.294;2023-02-19T01:56:09;101859.05;;;18.31;11.21
64698;BME280;51124;53.394;-6.294;2023-02-19T01:58:40;101858.48;;;18.30;10.67
64698;BME280;51124;53.394;-6.294;2023-02-19T02:01:09;101861.97;;;19.29;10.27
64698;BME280;51124;53.394;-6.294;2023-02-19T02:03:38;101852.61;;;18.82;10.16
64698;BME280;51124;53.394;-6.294;2023-02-19T02:06:11;101852.30;;;18.71;10.04
64698;BME280;51124;53.394;-6.294;2023-02-19T02:08:41;101852.85;;;17.82;9.88
64698;BME280;51124;53.394;-6.294;2023-02-19T02:11:08;101853.85;;;17.98;9.58
64698;BME280;51124;53.394;-6.294;2023-02-19T02:13:37;101849.21;;;18.28;9.43
64698;BME280;51124;53.394;-6.294;2023-02-19T02:16:16;101845.58;;;18.97;9.39
64698;BME280;51124;53.394;-6.294;2023-02-19T02:18:45;101840.91;;;18.73;9.32
64698;BME280;51124;53.394;-6.294;2023-02-19T02:21:21;101835.55;;;19.16;9.21
64698;BME280;51124;53.394;-6.294;2023-02-19T02:23:45;101837.16;;;18.04;9.19
64698;BME280;51124;53.394;-6.294;2023-02-19T02:26:18;101843.48;;;18.59;9.23
64698;BME280;51124;53.394;-6.294;2023-02-19T02:28:52;101859.49;;;18.57;9.09
64698;BME280;51124;53.394;-6.294;2023-02-19T02:31:11;101871.51;;;18.10;9.11
64698;BME280;51124;53.394;-6.294;2023-02-19T02:33:45;101877.57;;;18.34;9.20
64698;BME280;51124;53.394;-6.294;2023-02-19T02:36:19;101880.97;;;19.19;9.00
64698;BME280;51124;53.394;-6.294;2023-02-19T02:38:49;101882.05;;;18.32;8.96
64698;BME280;51124;53.394;-6.294;2023-02-19T02:41:17;101888.34;;;18.33;9.01
64698;BME280;51124;53.394;-6.294;2023-02-19T02:43:45;101887.11;;;18.98;8.91
64698;BME280;51124;53.394;-6.294;2023-02-19T02:46:14;101895.58;;;17.89;9.02
64698;BME280;51124;53.394;-6.294;2023-02-19T02:48:47;101903.07;;;18.33;8.86
64698;BME280;51124;53.394;-6.294;2023-02-19T02:51:21;101908.31;;;17.69;8.97
64698;BME280;51124;53.394;-6.294;2023-02-19T02:53:43;101901.64;;;18.40;8.92
64698;BME280;51124;53.394;-6.294;2023-02-19T02:56:15;101908.92;;;17.72;9.00
64698;BME280;51124;53.394;-6.294;2023-02-19T02:58:44;101909.12;;;18.13;8.94
64698;BME280;51124;53.394;-6.294;2023-02-19T03:01:17;101916.07;;;18.52;8.90
64698;BME280;51124;53.394;-6.294;2023-02-19T03:03:50;101912.99;;;18.34;8.96
64698;BME280;51124;53.394;-6.294;2023-02-19T03:06:21;101912.21;;;19.24;8.91
64698;BME280;51124;53.394;-6.294;2023-02-19T03:08:53;101920.36;;;18.11;8.86
64698;BME280;51124;53.394;-6.294;2023-02-19T03:11:22;101918.15;;;18.02;8.81
64698;BME280;51124;53.394;-6.294;2023-02-19T03:13:51;101919.11;;;18.18;8.84
64698;BME280;51124;53.394;-6.294;2023-02-19T03:16:23;101907.80;;;18.56;8.76
64698;BME280;51124;53.394;-6.294;2023-02-19T03:18:54;101912.53;;;19.08;8.87
64698;BME280;51124;53.394;-6.294;2023-02-19T03:21:24;101915.75;;;18.00;8.95
64698;BME280;51124;53.394;-6.294;2023-02-19T03:23:53;101909.63;;;17.86;8.91
64698;BME280;51124;53.394;-6.294;2023-02-19T03:26:22;101908.91;;;18.26;8.90
64698;BME280;51124;53.394;-6.294;2023-02-19T03:28:52;101911.49;;;17.59;8.95
64698;BME280;51124;53.394;-6.294;2023-02-19T03:31:23;101916.52;;;18.60;8.86
64698;BME280;51124;53.394;-6.294;2023-02-19T03:33:53;101921.54;;;17.96;8.96
64698;BME280;51124;53.394;-6.294;2023-02-19T03:36:22;101916.29;;;18.41;8.98
64698;BME280;51124;53.394;-6.294;2023-02-19T03:38:57;101926.74;;;17.72;8.89
64698;BME280;51124;53.394;-6.294;2023-02-19T03:41:32;101918.25;;;18.50;8.74
64698;BME280;51124;53.394;-6.294;2023-02-19T03:43:59;101915.50;;;17.97;8.80
64698;BME280;51124;53.394;-6.294;2023-02-19T03:46:24;101931.12;;;21.06;8.95
64698;BME280;51124;53.394;-6.294;2023-02-19T03:48:49;101938.04;;;20.33;9.53
64698;BME280;51124;53.394;-6.294;2023-02-19T03:51:27;101930.15;;;18.94;9.68
64698;BME280;51124;53.394;-6.294;2023-02-19T03:53:54;101923.92;;;19.03;9.76
64698;BME280;51124;53.394;-6.294;2023-02-19T03:56:18;101922.00;;;21.85;10.16
64698;BME280;51124;53.394;-6.294;2023-02-19T03:58:52;101919.40;;;20.86;10.65
64698;BME280;51124;53.394;-6.294;2023-02-19T04:01:27;101920.93;;;21.23;10.86
64698;BME280;51124;53.394;-6.294;2023-02-19T04:03:58;101933.23;;;20.80;11.15
64698;BME280;51124;53.394;-6.294;2023-02-19T04:06:29;101947.38;;;20.24;11.27
64698;BME280;51124;53.394;-6.294;2023-02-19T04:09:07;101949.86;;;20.13;11.51
64698;BME280;51124;53.394;-6.294;2023-02-19T04:11:26;101951.88;;;19.92;11.56
64698;BME280;51124;53.394;-6.294;2023-02-19T04:13:59;101952.95;;;20.36;11.38
64698;BME280;51124;53.394;-6.294;2023-02-19T04:16:28;101960.97;;;20.60;11.46
64698;BME280;51124;53.394;-6.294;2023-02-19T04:19:01;101955.07;;;20.16;11.60
64698;BME280;51124;53.394;-6.294;2023-02-19T04:21:32;101962.36;;;20.13;11.52
64698;BME280;51124;53.394;-6.294;2023-02-19T04:24:05;101964.77;;;20.56;11.57
64698;BME280;51124;53.394;-6.294;2023-02-19T04:26:36;101958.24;;;20.87;11.60
64698;BME280;51124;53.394;-6.294;2023-02-19T04:29:04;101961.98;;;20.30;11.67
64698;BME280;51124;53.394;-6.294;2023-02-19T04:31:33;101958.94;;;20.16;11.67
64698;BME280;51124;53.394;-6.294;2023-02-19T04:34:02;101961.21;;;20.12;11.71
64698;BME280;51124;53.394;-6.294;2023-02-19T04:36:30;101955.22;;;20.98;11.59
64698;BME280;51124;53.394;-6.294;2023-02-19T04:38:58;101964.99;;;19.83;11.74
64698;BME280;51124;53.394;-6.294;2023-02-19T04:41:26;101975.07;;;19.93;11.76
64698;BME280;51124;53.394;-6.294;2023-02-19T04:43:54;101975.60;;;19.89;11.79
64698;BME280;51124;53.394;-6.294;2023-02-19T04:46:21;101972.20;;;17.80;11.59
64698;BME280;51124;53.394;-6.294;2023-02-19T04:48:49;101968.22;;;17.41;11.09
64698;BME280;51124;53.394;-6.294;2023-02-19T04:51:16;101970.56;;;18.03;10.52
64698;BME280;51124;53.394;-6.294;2023-02-19T04:53:43;101971.98;;;18.38;10.23
64698;BME280;51124;53.394;-6.294;2023-02-19T04:56:12;101975.75;;;17.57;10.18
64698;BME280;51124;53.394;-6.294;2023-02-19T04:58:40;101975.94;;;17.78;9.96
64698;BME280;51124;53.394;-6.294;2023-02-19T05:01:08;101973.54;;;18.14;9.60
64698;BME280;51124;53.394;-6.294;2023-02-19T05:03:36;101970.61;;;17.92;9.54
64698;BME280;51124;53.394;-6.294;2023-02-19T05:06:05;101969.02;;;17.70;9.55
64698;BME280;51124;53.394;-6.294;2023-02-19T05:08:34;101964.83;;;18.43;9.43
64698;BME280;51124;53.394;-6.294;2023-02-19T05:11:03;101956.36;;;17.95;9.30
64698;BME280;51124;53.394;-6.294;2023-02-19T05:13:31;101952.10;;;17.47;9.41
64698;BME280;51124;53.394;-6.294;2023-02-19T05:16:00;101941.93;;;17.83;9.31
64698;BME280;51124;53.394;-6.294;2023-02-19T05:18:28;101936.71;;;17.81;9.06
64698;BME280;51124;53.394;-6.294;2023-02-19T05:20:56;101933.13;;;17.73;9.02
64698;BME280;51124;53.394;-6.294;2023-02-19T05:23:24;101936.14;;;18.18;9.03
64698;BME280;51124;53.394;-6.294;2023-02-19T05:25:52;101939.62;;;17.50;9.06
64698;BME280;51124;53.394;-6.294;2023-02-19T05:28:20;101943.32;;;17.56;8.97
64698;BME280;51124;53.394;-6.294;2023-02-19T05:30:48;101945.49;;;17.27;8.98
64698;BME280;51124;53.394;-6.294;2023-02-19T05:33:17;101942.29;;;17.53;8.89
64698;BME280;51124;53.394;-6.294;2023-02-19T05:35:46;101930.23;;;18.33;8.86
64698;BME280;51124;53.394;-6.294;2023-02-19T05:38:14;101909.38;;;18.33;8.76
64698;BME280;51124;53.394;-6.294;2023-02-19T05:40:42;101899.28;;;17.80;8.83
64698;BME280;51124;53.394;-6.294;2023-02-19T05:43:10;101900.32;;;18.66;8.80
64698;BME280;51124;53.394;-6.294;2023-02-19T05:45:38;101909.02;;;18.26;8.84
64698;BME280;51124;53.394;-6.294;2023-02-19T05:48:06;101894.32;;;18.26;8.73
64698;BME280;51124;53.394;-6.294;2023-02-19T05:50:35;101903.93;;;18.51;8.74
64698;BME280;51124;53.394;-6.294;2023-02-19T05:53:03;101912.57;;;18.08;8.84
64698;BME280;51124;53.394;-6.294;2023-02-19T05:55:35;101913.24;;;17.88;8.77
64698;BME280;51124;53.394;-6.294;2023-02-19T05:58:02;101911.87;;;18.55;8.75
64698;BME280;51124;53.394;-6.294;2023-02-19T06:00:31;101907.93;;;18.22;8.80
64698;BME280;51124;53.394;-6.294;2023-02-19T06:02:58;101899.14;;;18.24;8.74
64698;BME280;51124;53.394;-6.294;2023-02-19T06:05:26;101885.90;;;17.31;8.94
64698;BME280;51124;53.394;-6.294;2023-02-19T06:07:53;101878.96;;;17.74;8.87
64698;BME280;51124;53.394;-6.294;2023-02-19T06:10:21;101876.48;;;18.44;8.93
64698;BME280;51124;53.394;-6.294;2023-02-19T06:12:51;101875.36;;;18.13;8.86
64698;BME280;51124;53.394;-6.294;2023-02-19T06:15:18;101874.29;;;17.71;8.85
64698;BME280;51124;53.394;-6.294;2023-02-19T06:17:46;101874.25;;;17.74;8.83
64698;BME280;51124;53.394;-6.294;2023-02-19T06:20:13;101870.62;;;18.29;8.80
64698;BME280;51124;53.394;-6.294;2023-02-19T06:22:40;101882.21;;;18.31;8.85
64698;BME280;51124;53.394;-6.294;2023-02-19T06:25:08;101874.99;;;17.82;8.90
64698;BME280;51124;53.394;-6.294;2023-02-19T06:27:37;101862.94;;;17.33;8.90
64698;BME280;51124;53.394;-6.294;2023-02-19T06:30:05;101856.33;;;17.98;8.69
64698;BME280;51124;53.394;-6.294;2023-02-19T06:32:32;101854.16;;;18.24;8.66
64698;BME280;51124;53.394;-6.294;2023-02-19T06:35:00;101859.28;;;18.29;8.75
64698;BME280;51124;53.394;-6.294;2023-02-19T06:37:27;101852.83;;;19.26;8.76
64698;BME280;51124;53.394;-6.294;2023-02-19T06:39:55;101860.11;;;20.13;9.22
64698;BME280;51124;53.394;-6.294;2023-02-19T06:42:22;101860.94;;;18.70;9.66
64698;BME280;51124;53.394;-6.294;2023-02-19T06:44:49;101862.12;;;17.78;9.60
64698;BME280;51124;53.394;-6.294;2023-02-19T06:47:17;101852.49;;;21.61;9.81
64698;BME280;51124;53.394;-6.294;2023-02-19T06:49:45;101852.27;;;21.49;10.29
64698;BME280;51124;53.394;-6.294;2023-02-19T06:52:13;101862.86;;;20.91;10.59
64698;BME280;51124;53.394;-6.294;2023-02-19T06:54:41;101870.52;;;20.61;10.78
64698;BME280;51124;53.394;-6.294;2023-02-19T06:57:08;101873.65;;;20.48;10.99
64698;BME280;51124;53.394;-6.294;2023-02-19T06:59:36;101872.27;;;20.17;11.20
64698;BME280;51124;53.394;-6.294;2023-02-19T07:02:04;101873.99;;;19.95;11.35
64698;BME280;51124;53.394;-6.294;2023-02-19T07:04:32;101875.21;;;19.78;11.45
64698;BME280;51124;53.394;-6.294;2023-02-19T07:07:00;101875.32;;;20.51;11.40
64698;BME280;51124;53.394;-6.294;2023-02-19T07:09:28;101871.16;;;19.76;11.39
64698;BME280;51124;53.394;-6.294;2023-02-19T07:11:55;101886.00;;;20.18;11.33
64698;BME280;51124;53.394;-6.294;2023-02-19T07:14:23;101894.25;;;20.43;11.47
64698;BME280;51124;53.394;-6.294;2023-02-19T07:16:51;101904.88;;;20.15;11.38
64698;BME280;51124;53.394;-6.294;2023-02-19T07:19:19;101906.45;;;19.89;11.54
64698;BME280;51124;53.394;-6.294;2023-02-19T07:21:46;101908.32;;;20.36;11.49
64698;BME280;51124;53.394;-6.294;2023-02-19T07:24:14;101908.10;;;19.93;11.51
64698;BME280;51124;53.394;-6.294;2023-02-19T07:26:42;101905.70;;;20.01;11.52
64698;BME280;51124;53.394;-6.294;2023-02-19T07:29:10;101908.32;;;19.88;11.52
64698;BME280;51124;53.394;-6.294;2023-02-19T07:31:37;101916.77;;;20.38;11.51
64698;BME280;51124;53.394;-6.294;2023-02-19T07:34:05;101918.05;;;19.71;11.59
64698;BME280;51124;53.394;-6.294;2023-02-19T07:36:33;101927.77;;;19.61;11.42
64698;BME280;51124;53.394;-6.294;2023-02-19T07:39:00;101930.31;;;17.60;11.25
64698;BME280;51124;53.394;-6.294;2023-02-19T07:41:28;101925.47;;;16.85;10.69
64698;BME280;51124;53.394;-6.294;2023-02-19T07:43:56;101935.56;;;17.86;10.24
64698;BME280;51124;53.394;-6.294;2023-02-19T07:46:24;101929.10;;;17.74;10.06
64698;BME280;51124;53.394;-6.294;2023-02-19T07:48:51;101936.54;;;17.40;9.86
64698;BME280;51124;53.394;-6.294;2023-02-19T07:51:20;101943.50;;;17.71;9.60
64698;BME280;51124;53.394;-6.294;2023-02-19T07:53:48;101944.63;;;18.30;9.47
64698;BME280;51124;53.394;-6.294;2023-02-19T07:56:15;101939.01;;;18.06;9.40
64698;BME280;51124;53.394;-6.294;2023-02-19T07:58:43;101939.60;;;17.15;9.30
64698;BME280;51124;53.394;-6.294;2023-02-19T08:01:13;101939.77;;;17.66;9.17
64698;BME280;51124;53.394;-6.294;2023-02-19T08:03:40;101942.78;;;17.77;9.25
64698;BME280;51124;53.394;-6.294;2023-02-19T08:06:09;101942.54;;;17.71;9.15
64698;BME280;51124;53.394;-6.294;2023-02-19T08:08:37;101937.91;;;17.33;9.08
64698;BME280;51124;53.394;-6.294;2023-02-19T08:11:06;101940.90;;;17.16;9.13
64698;BME280;51124;53.394;-6.294;2023-02-19T08:13:33;101933.82;;;17.37;8.98
64698;BME280;51124;53.394;-6.294;2023-02-19T08:16:12;101937.75;;;16.54;9.10
64698;BME280;51124;53.394;-6.294;2023-02-19T08:18:31;101926.77;;;18.13;8.76
64698;BME280;51124;53.394;-6.294;2023-02-19T08:20:59;101932.14;;;17.21;8.91
64698;BME280;51124;53.394;-6.294;2023-02-19T08:23:27;101930.45;;;18.23;8.68
64698;BME280;51124;53.394;-6.294;2023-02-19T08:25:59;101934.51;;;17.61;8.76
64698;BME280;51124;53.394;-6.294;2023-02-19T08:28:27;101935.60;;;18.01;8.69
64698;BME280;51124;53.394;-6.294;2023-02-19T08:30:57;101935.75;;;18.27;8.61
64698;BME280;51124;53.394;-6.294;2023-02-19T08:33:24;101936.86;;;17.80;8.65
64698;BME280;51124;53.394;-6.294;2023-02-19T08:35:52;101938.14;;;17.92;8.64
64698;BME280;51124;53.394;-6.294;2023-02-19T08:38:19;101936.80;;;16.87;8.70
64698;BME280;51124;53.394;-6.294;2023-02-19T08:40:46;101927.22;;;17.54;8.72
64698;BME280;51124;53.394;-6.294;2023-02-19T08:43:15;101917.15;;;17.68;8.61
64698;BME280;51124;53.394;-6.294;2023-02-19T08:45:44;101914.11;;;18.28;8.66
64698;BME280;51124;53.394;-6.294;2023-02-19T08:48:12;101909.30;;;17.54;8.75
64698;BME280;51124;53.394;-6.294;2023-02-19T08:50:40;101917.01;;;17.59;8.71
64698;BME280;51124;53.394;-6.294;2023-02-19T08:53:07;101914.82;;;17.49;8.63
64698;BME280;51124;53.394;-6.294;2023-02-19T08:55:35;101911.97;;;18.17;8.58
64698;BME280;51124;53.394;-6.294;2023-02-19T08:58:03;101901.70;;;18.48;8.67
64698;BME280;51124;53.394;-6.294;2023-02-19T09:00:30;101907.33;;;18.48;8.68
64698;BME280;51124;53.394;-6.294;2023-02-19T09:02:58;101904.60;;;18.58;8.67
64698;BME280;51124;53.394;-6.294;2023-02-19T09:05:26;101907.84;;;18.01;8.66
64698;BME280;51124;53.394;-6.294;2023-02-19T09:07:53;101905.46;;;17.80;8.69
64698;BME280;51124;53.394;-6.294;2023-02-19T09:10:21;101912.45;;;18.13;8.68
64698;BME280;51124;53.394;-6.294;2023-02-19T09:12:48;101914.19;;;18.10;8.68
64698;BME280;51124;53.394;-6.294;2023-02-19T09:15:16;101918.21;;;17.85;8.68
64698;BME280;51124;53.394;-6.294;2023-02-19T09:17:43;101917.83;;;18.84;8.72
64698;BME280;51124;53.394;-6.294;2023-02-19T09:20:11;101916.52;;;17.63;8.64
64698;BME280;51124;53.394;-6.294;2023-02-19T09:22:38;101913.43;;;17.50;8.57
64698;BME280;51124;53.394;-6.294;2023-02-19T09:25:06;101906.33;;;17.59;8.59
64698;BME280;51124;53.394;-6.294;2023-02-19T09:27:33;101906.40;;;17.67;8.64
64698;BME280;51124;53.394;-6.294;2023-02-19T09:30:00;101903.32;;;19.58;8.58
64698;BME280;51124;53.394;-6.294;2023-02-19T09:32:31;101914.79;;;20.42;9.02
64698;BME280;51124;53.394;-6.294;2023-02-19T09:34:59;101921.11;;;19.81;9.34
64698;BME280;51124;53.394;-6.294;2023-02-19T09:37:27;101917.51;;;18.15;9.32
64698;BME280;51124;53.394;-6.294;2023-02-19T09:39:55;101917.61;;;21.82;9.39
64698;BME280;51124;53.394;-6.294;2023-02-19T09:42:24;101927.59;;;21.31;9.85
64698;BME280;51124;53.394;-6.294;2023-02-19T09:44:56;101924.76;;;20.80;10.22
64698;BME280;51124;53.394;-6.294;2023-02-19T09:47:27;101932.10;;;20.34;10.55
64698;BME280;51124;53.394;-6.294;2023-02-19T09:49:58;101935.22;;;20.75;10.72
64698;BME280;51124;53.394;-6.294;2023-02-19T09:52:30;101939.67;;;19.71;10.78
64698;BME280;51124;53.394;-6.294;2023-02-19T09:55:03;101943.72;;;20.48;10.87
64698;BME280;51124;53.394;-6.294;2023-02-19T09:57:31;101956.87;;;20.56;10.89
64698;BME280;51124;53.394;-6.294;2023-02-19T10:00:18;101952.61;;;20.14;10.95
64698;BME280;51124;53.394;-6.294;2023-02-19T10:02:27;101945.47;;;20.13;11.00
64698;BME280;51124;53.394;-6.294;2023-02-19T10:04:55;101944.38;;;20.57;10.95
64698;BME280;51124;53.394;-6.294;2023-02-19T10:07:26;101951.10;;;20.93;10.91
64698;BME280;51124;53.394;-6.294;2023-02-19T10:09:59;101951.41;;;20.08;10.99
64698;BME280;51124;53.394;-6.294;2023-02-19T10:12:30;101953.64;;;20.40;11.00
64698;BME280;51124;53.394;-6.294;2023-02-19T10:15:03;101955.37;;;20.00;11.09
64698;BME280;51124;53.394;-6.294;2023-02-19T10:17:33;101953.96;;;20.09;11.12
64698;BME280;51124;53.394;-6.294;2023-02-19T10:20:02;101955.79;;;20.17;11.02
64698;BME280;51124;53.394;-6.294;2023-02-19T10:22:30;101953.30;;;20.29;11.03
64698;BME280;51124;53.394;-6.294;2023-02-19T10:24:59;101953.08;;;20.17;11.03
64698;BME280;51124;53.394;-6.294;2023-02-19T10:27:28;101953.61;;;20.20;11.03
64698;BME280;51124;53.394;-6.294;2023-02-19T10:29:56;101948.08;;;19.30;11.05
64698;BME280;51124;53.394;-6.294;2023-02-19T10:32:25;101951.89;;;17.97;10.53
64698;BME280;51124;53.394;-6.294;2023-02-19T10:35:10;101954.47;;;17.74;11.80
64698;BME280;51124;53.394;-6.294;2023-02-19T10:37:28;101959.64;;;17.56;11.73
64698;BME280;51124;53.394;-6.294;2023-02-19T10:39:56;101960.39;;;18.86;11.31
64698;BME280;51124;53.394;-6.294;2023-02-19T10:42:24;101956.48;;;18.77;10.61
64698;BME280;51124;53.394;-6.294;2023-02-19T10:44:55;101957.73;;;18.77;10.29
64698;BME280;51124;53.394;-6.294;2023-02-19T10:47:25;101956.97;;;18.57;10.21
64698;BME280;51124;53.394;-6.294;2023-02-19T10:49:54;101953.02;;;17.93;9.38
64698;BME280;51124;53.394;-6.294;2023-02-19T10:52:26;101948.01;;;17.73;8.95
64698;BME280;51124;53.394;-6.294;2023-02-19T10:54:56;101961.92;;;18.14;8.75
64698;BME280;51124;53.394;-6.294;2023-02-19T10:57:27;101954.68;;;18.52;8.59
64698;BME280;51124;53.394;-6.294;2023-02-19T10:59:56;101946.44;;;17.99;8.90
64698;BME280;51124;53.394;-6.294;2023-02-19T11:02:25;101956.08;;;17.78;8.83
64698;BME280;51124;53.394;-6.294;2023-02-19T11:05:18;101947.72;;;18.41;8.83
64698;BME280;51124;53.394;-6.294;2023-02-19T11:07:25;101958.46;;;17.61;8.80
64698;BME280;51124;53.394;-6.294;2023-02-19T11:09:52;101957.12;;;17.22;8.81
64698;BME280;51124;53.394;-6.294;2023-02-19T11:12:25;101949.99;;;18.00;8.76
64698;BME280;51124;53.394;-6.294;2023-02-19T11:14:54;101947.02;;;16.90;8.92
64698;BME280;51124;53.394;-6.294;2023-02-19T11:17:24;101954.96;;;16.80;8.91
64698;BME280;51124;53.394;-6.294;2023-02-19T11:19:54;101952.37;;;17.01;8.77
64698;BME280;51124;53.394;-6.294;2023-02-19T11:22:30;101951.97;;;17.41;8.80
64698;BME280;51124;53.394;-6.294;2023-02-19T11:25:05;101946.43;;;17.17;8.62
64698;BME280;51124;53.394;-6.294;2023-02-19T11:27:33;101939.25;;;17.27;8.66
64698;BME280;51124;53.394;-6.294;2023-02-19T11:30:32;101937.70;;;17.90;8.78
64698;BME280;51124;53.394;-6.294;2023-02-19T11:32:30;101934.32;;;18.34;8.69
64698;BME280;51124;53.394;-6.294;2023-02-19T11:35:30;101933.41;;;17.52;8.52
64698;BME280;51124;53.394;-6.294;2023-02-19T11:37:27;101939.10;;;17.76;8.53
64698;BME280;51124;53.394;-6.294;2023-02-19T11:39:54;101939.69;;;17.80;8.66
64698;BME280;51124;53.394;-6.294;2023-02-19T11:42:35;101948.66;;;17.79;8.65
64698;BME280;51124;53.394;-6.294;2023-02-19T11:45:08;101943.28;;;17.34;8.72
64698;BME280;51124;53.394;-6.294;2023-02-19T11:47:40;101940.38;;;16.15;9.10
64698;BME280;51124;53.394;-6.294;2023-02-19T11:50:07;101939.42;;;17.59;8.69
64698;BME280;51124;53.394;-6.294;2023-02-19T11:52:32;101934.25;;;17.42;8.50
64698;BME280;51124;53.394;-6.294;2023-02-19T11:54:59;101928.69;;;17.51;8.41
64698;BME280;51124;53.394;-6.294;2023-02-19T11:57:33;101933.62;;;18.99;8.40
64698;BME280;51124;53.394;-6.294;2023-02-19T11:59:59;101925.49;;;17.63;8.42
64698;BME280;51124;53.394;-6.294;2023-02-19T12:02:47;101920.22;;;17.25;8.40
64698;BME280;51124;53.394;-6.294;2023-02-19T12:06:05;101921.04;;;18.20;8.28
64698;BME280;51124;53.394;-6.294;2023-02-19T12:07:32;101902.80;;;17.95;8.11
64698;BME280;51124;53.394;-6.294;2023-02-19T12:10:02;101903.86;;;18.49;8.13
64698;BME280;51124;53.394;-6.294;2023-02-19T12:12:31;101897.39;;;18.66;7.96
64698;BME280;51124;53.394;-6.294;2023-02-19T12:15:09;101895.04;;;17.48;8.15
64698;BME280;51124;53.394;-6.294;2023-02-19T12:17:39;101887.03;;;16.78;8.31
64698;BME280;51124;53.394;-6.294;2023-02-19T12:20:00;101886.11;;;16.86;8.22
64698;BME280;51124;53.394;-6.294;2023-02-19T12:22:27;101873.41;;;18.38;7.84
64698;BME280;51124;53.394;-6.294;2023-02-19T12:24:59;101871.78;;;20.11;8.01
64698;BME280;51124;53.394;-6.294;2023-02-19T12:27:27;101861.49;;;20.84;8.54
64698;BME280;51124;53.394;-6.294;2023-02-19T12:30:00;101861.92;;;19.13;8.79
64698;BME280;51124;53.394;-6.294;2023-02-19T12:32:42;101846.36;;;18.14;8.62
64698;BME280;51124;53.394;-6.294;2023-02-19T12:35:24;101841.03;;;21.80;8.87
64698;BME280;51124;53.394;-6.294;2023-02-19T12:37:34;101843.43;;;21.11;9.53
64698;BME280;51124;53.394;-6.294;2023-02-19T12:40:16;101825.63;;;20.68;9.86
64698;BME280;51124;53.394;-6.294;2023-02-19T12:42:41;101817.84;;;20.25;10.05
64698;BME280;51124;53.394;-6.294;2023-02-19T12:44:56;101807.36;;;21.09;10.11
64698;BME280;51124;53.394;-6.294;2023-02-19T12:47:30;101804.27;;;19.99;10.29
64698;BME280;51124;53.394;-6.294;2023-02-19T12:50:04;101796.47;;;21.25;10.25
64698;BME280;51124;53.394;-6.294;2023-02-19T12:52:39;101792.68;;;19.96;10.60
64698;BME280;51124;53.394;-6.294;2023-02-19T12:55:16;101784.74;;;20.65;10.61